sensor_id;sensor_type;location;lat;lon;timestamp;P1;durP1;ratioP1;P2;durP2;ratioP2
8550;SDS011;4313;42.000;21.380;2023-04-01T00:02:13;13.82;;;7.80;;
8550;SDS011;4313;42.000;21.380;2023-04-01T00:04:40;19.75;;;7.05;;
8550;SDS011;4313;42.000;21.380;2023-04-01T00:07:08;12.48;;;7.32;;
8550;SDS011;4313;42.000;21.380;2023-04-01T00:09:36;12.25;;;7.53;;
8550;SDS011;4313;42.000;21.380;2023-04-01T00:12:03;15.25;;;9.43;;
8550;SDS011;4313;42.000;21.380;2023-04-01T00:14:30;16.25;;;10.38;;
8550;SDS011;4313;42.000;21.380;2023-04-01T00:16:57;17.90;;;9.25;;
8550;SDS011;4313;42.000;21.380;2023-04-01T00:19:25;14.02;;;8.57;;
8550;SDS011;4313;42.000;21.380;2023-04-01T00:21:52;15.48;;;8.82;;
8550;SDS011;4313;42.000;21.380;2023-04-01T00:24:20;13.35;;;6.78;;
8550;SDS011;4313;42.000;21.380;2023-04-01T00:26:47;14.15;;;7.15;;
8550;SDS011;4313;42.000;21.380;2023-04-01T00:29:14;11.68;;;7.78;;
8550;SDS011;4313;42.000;21.380;2023-04-01T00:31:41;14.02;;;8.45;;
8550;SDS011;4313;42.000;21.380;2023-04-01T00:34:08;15.35;;;8.25;;
8550;SDS011;4313;42.000;21.380;2023-04-01T00:36:37;13.82;;;7.38;;
8550;SDS011;4313;42.000;21.380;2023-04-01T00:39:05;12.90;;;7.53;;
8550;SDS011;4313;42.000;21.380;2023-04-01T00:41:35;16.90;;;7.65;;
8550;SDS011;4313;42.000;21.380;2023-04-01T00:44:17;17.45;;;8.00;;
8550;SDS011;4313;42.000;21.380;2023-04-01T00:46:46;15.82;;;8.50;;
8550;SDS011;4313;42.000;21.380;2023-04-01T00:49:14;15.93;;;7.80;;
8550;SDS011;4313;42.000;21.380;2023-04-01T00:51:45;11.80;;;7.13;;
8550;SDS011;4313;42.000;21.380;2023-04-01T00:54:15;11.43;;;7.35;;
8550;SDS011;4313;42.000;21.380;2023-04-01T00:56:44;12.45;;;7.57;;
8550;SDS011;4313;42.000;21.380;2023-04-01T00:59:16;13.43;;;8.40;;
8550;SDS011;4313;42.000;21.380;2023-04-01T01:01:45;16.55;;;8.25;;
8550;SDS011;4313;42.000;21.380;2023-04-01T01:04:20;9.57;;;7.07;;
8550;SDS011;4313;42.000;21.380;2023-04-01T01:06:52;14.30;;;7.97;;
8550;SDS011;4313;42.000;21.380;2023-04-01T01:09:29;14.30;;;8.20;;
8550;SDS011;4313;42.000;21.380;2023-04-01T01:12:01;12.63;;;8.48;;
8550;SDS011;4313;42.000;21.380;2023-04-01T01:14:36;15.98;;;8.68;;
8550;SDS011;4313;42.000;21.380;2023-04-01T01:17:09;13.48;;;8.02;;
8550;SDS011;4313;42.000;21.380;2023-04-01T01:19:52;15.35;;;8.55;;
8550;SDS011;4313;42.000;21.380;2023-04-01T01:22:37;14.02;;;9.15;;
8550;SDS011;4313;42.000;21.380;2023-04-01T01:25:23;14.05;;;8.52;;
8550;SDS011;4313;42.000;21.380;2023-04-01T01:28:01;14.50;;;8.68;;
8550;SDS011;4313;42.000;21.380;2023-04-01T01:30:43;13.40;;;8.80;;
8550;SDS011;4313;42.000;21.380;2023-04-01T01:33:17;13.80;;;8.57;;
8550;SDS011;4313;42.000;21.380;2023-04-01T01:35:58;13.32;;;8.90;;
8550;SDS011;4313;42.000;21.380;2023-04-01T01:38:27;12.80;;;8.50;;
8550;SDS011;4313;42.000;21.380;2023-04-01T01:41:02;13.55;;;8.75;;
8550;SDS011;4313;42.000;21.380;2023-04-01T01:43:32;17.38;;;8.73;;
8550;SDS011;4313;42.000;21.380;2023-04-01T01:46:21;16.27;;;9.02;;
8550;SDS011;4313;42.000;21.380;2023-04-01T01:48:50;14.82;;;8.48;;
8550;SDS011;4313;42.000;21.380;2023-04-01T01:51:20;12.45;;;7.88;;
8550;SDS011;4313;42.000;21.380;2023-04-01T01:53:48;13.10;;;7.60;;
8550;SDS011;4313;42.000;21.380;2023-04-01T01:56:21;11.90;;;6.70;;
8550;SDS011;4313;42.000;21.380;2023-04-01T01:58:51;9.48;;;7.00;;
8550;SDS011;4313;42.000;21.380;2023-04-01T02:01:22;15.13;;;7.82;;
8550;SDS011;4313;42.000;21.380;2023-04-01T02:03:52;13.10;;;7.38;;
8550;SDS011;4313;42.000;21.380;2023-04-01T02:06:22;12.98;;;6.93;;
8550;SDS011;4313;42.000;21.380;2023-04-01T02:08:52;11.15;;;7.03;;
8550;SDS011;4313;42.000;21.380;2023-04-01T02:11:23;10.98;;;7.40;;
8550;SDS011;4313;42.000;21.380;2023-04-01T02:13:54;11.90;;;7.10;;
8550;SDS011;4313;42.000;21.380;2023-04-01T02:16:23;11.07;;;7.00;;
8550;SDS011;4313;42.000;21.380;2023-04-01T02:18:53;12.15;;;7.10;;
8550;SDS011;4313;42.000;21.380;2023-04-01T02:21:24;13.95;;;7.90;;
8550;SDS011;4313;42.000;21.380;2023-04-01T02:23:57;12.57;;;7.63;;
8550;SDS011;4313;42.000;21.380;2023-04-01T02:26:24;14.43;;;7.68;;
8550;SDS011;4313;42.000;21.380;2023-04-01T02:28:52;15.95;;;8.07;;
8550;SDS011;4313;42.000;21.380;2023-04-01T02:31:21;12.90;;;7.65;;
8550;SDS011;4313;42.000;21.380;2023-04-01T02:33:53;14.25;;;8.18;;
8550;SDS011;4313;42.000;21.380;2023-04-01T02:36:21;17.33;;;8.30;;
8550;SDS011;4313;42.000;21.380;2023-04-01T02:38:49;12.52;;;8.50;;
8550;SDS011;4313;42.000;21.380;2023-04-01T02:41:18;13.18;;;8.10;;
8550;SDS011;4313;42.000;21.380;2023-04-01T02:43:46;14.60;;;8.07;;
8550;SDS011;4313;42.000;21.380;2023-04-01T02:46:13;16.20;;;7.95;;
8550;SDS011;4313;42.000;21.380;2023-04-01T02:48:41;11.23;;;7.40;;
8550;SDS011;4313;42.000;21.380;2023-04-01T02:51:08;13.00;;;7.53;;
8550;SDS011;4313;42.000;21.380;2023-04-01T02:53:35;14.35;;;7.95;;
8550;SDS011;4313;42.000;21.380;2023-04-01T02:56:04;12.43;;;7.85;;
8550;SDS011;4313;42.000;21.380;2023-04-01T02:58:31;14.93;;;8.25;;
8550;SDS011;4313;42.000;21.380;2023-04-01T03:00:59;14.35;;;7.70;;
8550;SDS011;4313;42.000;21.380;2023-04-01T03:03:26;13.30;;;7.85;;
8550;SDS011;4313;42.000;21.380;2023-04-01T03:05:53;15.02;;;7.55;;
8550;SDS011;4313;42.000;21.380;2023-04-01T03:08:21;11.68;;;7.00;;
8550;SDS011;4313;42.000;21.380;2023-04-01T03:10:48;9.70;;;6.85;;
8550;SDS011;4313;42.000;21.380;2023-04-01T03:13:17;9.02;;;5.50;;
8550;SDS011;4313;42.000;21.380;2023-04-01T03:15:44;12.30;;;5.15;;
8550;SDS011;4313;42.000;21.380;2023-04-01T03:18:11;9.88;;;4.93;;
8550;SDS011;4313;42.000;21.380;2023-04-01T03:20:39;8.65;;;4.68;;
8550;SDS011;4313;42.000;21.380;2023-04-01T03:23:06;7.72;;;5.00;;
8550;SDS011;4313;42.000;21.380;2023-04-01T03:25:34;10.52;;;5.45;;
8550;SDS011;4313;42.000;21.380;2023-04-01T03:28:01;9.75;;;5.40;;
8550;SDS011;4313;42.000;21.380;2023-04-01T03:30:30;9.65;;;5.60;;
8550;SDS011;4313;42.000;21.380;2023-04-01T03:32:57;8.60;;;4.07;;
8550;SDS011;4313;42.000;21.380;2023-04-01T03:35:24;8.88;;;4.80;;
8550;SDS011;4313;42.000;21.380;2023-04-01T03:37:56;7.22;;;5.07;;
8550;SDS011;4313;42.000;21.380;2023-04-01T03:40:24;10.38;;;5.85;;
8550;SDS011;4313;42.000;21.380;2023-04-01T03:42:52;9.25;;;5.78;;
8550;SDS011;4313;42.000;21.380;2023-04-01T03:45:19;10.07;;;6.93;;
8550;SDS011;4313;42.000;21.380;2023-04-01T03:47:48;14.75;;;7.05;;
8550;SDS011;4313;42.000;21.380;2023-04-01T03:50:15;10.43;;;6.03;;
8550;SDS011;4313;42.000;21.380;2023-04-01T03:52:42;10.73;;;6.80;;
8550;SDS011;4313;42.000;21.380;2023-04-01T03:55:09;12.07;;;6.40;;
8550;SDS011;4313;42.000;21.380;2023-04-01T03:57:41;10.98;;;6.30;;
8550;SDS011;4313;42.000;21.380;2023-04-01T04:00:16;12.82;;;6.43;;
8550;SDS011;4313;42.000;21.380;2023-04-01T04:02:48;12.13;;;6.47;;
8550;SDS011;4313;42.000;21.380;2023-04-01T04:05:21;12.60;;;6.78;;
8550;SDS011;4313;42.000;21.380;2023-04-01T04:07:49;12.57;;;6.43;;
8550;SDS011;4313;42.000;21.380;2023-04-01T04:10:16;10.10;;;6.50;;
8550;SDS011;4313;42.000;21.380;2023-04-01T04:12:44;12.20;;;7.60;;
8550;SDS011;4313;42.000;21.380;2023-04-01T04:15:11;11.00;;;5.13;;
8550;SDS011;4313;42.000;21.380;2023-04-01T04:17:40;11.13;;;5.17;;
8550;SDS011;4313;42.000;21.380;2023-04-01T04:20:11;7.67;;;5.30;;
8550;SDS011;4313;42.000;21.380;2023-04-01T04:22:38;10.70;;;4.90;;
8550;SDS011;4313;42.000;21.380;2023-04-01T04:25:07;10.50;;;5.63;;
8550;SDS011;4313;42.000;21.380;2023-04-01T04:27:35;11.37;;;6.30;;
8550;SDS011;4313;42.000;21.380;2023-04-01T04:30:08;12.63;;;7.40;;
8550;SDS011;4313;42.000;21.380;2023-04-01T04:32:36;11.70;;;6.70;;
8550;SDS011;4313;42.000;21.380;2023-04-01T04:35:04;8.70;;;5.43;;
8550;SDS011;4313;42.000;21.380;2023-04-01T04:37:34;11.20;;;5.80;;
8550;SDS011;4313;42.000;21.380;2023-04-01T04:40:01;8.63;;;5.50;;
8550;SDS011;4313;42.000;21.380;2023-04-01T04:42:30;9.10;;;5.50;;
8550;SDS011;4313;42.000;21.380;2023-04-01T04:45:03;12.50;;;5.40;;
8550;SDS011;4313;42.000;21.380;2023-04-01T04:47:31;12.73;;;5.37;;
8550;SDS011;4313;42.000;21.380;2023-04-01T04:49:58;10.97;;;5.60;;
8550;SDS011;4313;42.000;21.380;2023-04-01T04:52:28;12.37;;;7.30;;
8550;SDS011;4313;42.000;21.380;2023-04-01T04:54:57;14.03;;;8.40;;
8550;SDS011;4313;42.000;21.380;2023-04-01T04:57:24;9.17;;;5.70;;
8550;SDS011;4313;42.000;21.380;2023-04-01T04:59:54;8.70;;;6.23;;
8550;SDS011;4313;42.000;21.380;2023-04-01T05:02:57;9.83;;;6.90;;
8550;SDS011;4313;42.000;21.380;2023-04-01T05:05:24;12.20;;;7.27;;
8550;SDS011;4313;42.000;21.380;2023-04-01T05:07:51;12.23;;;7.30;;
8550;SDS011;4313;42.000;21.380;2023-04-01T05:10:20;11.63;;;8.13;;
8550;SDS011;4313;42.000;21.380;2023-04-01T05:12:49;13.83;;;7.87;;
8550;SDS011;4313;42.000;21.380;2023-04-01T05:15:19;13.33;;;7.30;;
8550;SDS011;4313;42.000;21.380;2023-04-01T05:17:47;12.03;;;7.50;;
8550;SDS011;4313;42.000;21.380;2023-04-01T05:20:14;15.50;;;7.80;;
8550;SDS011;4313;42.000;21.380;2023-04-01T05:22:42;12.52;;;7.82;;
8550;SDS011;4313;42.000;21.380;2023-04-01T05:25:13;11.55;;;8.20;;
8550;SDS011;4313;42.000;21.380;2023-04-01T05:27:42;15.30;;;8.05;;
8550;SDS011;4313;42.000;21.380;2023-04-01T05:30:12;14.52;;;8.32;;
8550;SDS011;4313;42.000;21.380;2023-04-01T05:33:00;14.43;;;7.80;;
8550;SDS011;4313;42.000;21.380;2023-04-01T05:35:28;13.13;;;7.80;;
8550;SDS011;4313;42.000;21.380;2023-04-01T05:37:55;15.63;;;9.00;;
8550;SDS011;4313;42.000;21.380;2023-04-01T05:40:22;20.13;;;10.75;;
8550;SDS011;4313;42.000;21.380;2023-04-01T05:42:51;15.52;;;9.20;;
8550;SDS011;4313;42.000;21.380;2023-04-01T05:45:18;14.30;;;9.50;;
8550;SDS011;4313;42.000;21.380;2023-04-01T05:48:04;18.63;;;9.27;;
8550;SDS011;4313;42.000;21.380;2023-04-01T05:50:50;16.27;;;8.43;;
8550;SDS011;4313;42.000;21.380;2023-04-01T05:53:17;13.32;;;9.73;;
8550;SDS011;4313;42.000;21.380;2023-04-01T05:55:44;14.90;;;8.65;;
8550;SDS011;4313;42.000;21.380;2023-04-01T05:58:15;14.38;;;8.38;;
8550;SDS011;4313;42.000;21.380;2023-04-01T06:00:45;12.80;;;7.68;;
8550;SDS011;4313;42.000;21.380;2023-04-01T06:03:15;12.77;;;7.55;;
8550;SDS011;4313;42.000;21.380;2023-04-01T06:05:43;10.88;;;7.53;;
8550;SDS011;4313;42.000;21.380;2023-04-01T06:08:14;12.85;;;9.00;;
8550;SDS011;4313;42.000;21.380;2023-04-01T06:10:48;17.33;;;9.07;;
8550;SDS011;4313;42.000;21.380;2023-04-01T06:13:24;15.95;;;9.13;;
8550;SDS011;4313;42.000;21.380;2023-04-01T06:15:59;11.73;;;7.80;;
8550;SDS011;4313;42.000;21.380;2023-04-01T06:21:37;20.85;;;9.50;;
8550;SDS011;4313;42.000;21.380;2023-04-01T06:24:28;13.32;;;9.93;;
8550;SDS011;4313;42.000;21.380;2023-04-01T06:27:03;11.50;;;7.90;;
8550;SDS011;4313;42.000;21.380;2023-04-01T06:29:56;15.70;;;7.32;;
8550;SDS011;4313;42.000;21.380;2023-04-01T06:32:31;15.93;;;7.07;;
8550;SDS011;4313;42.000;21.380;2023-04-01T06:35:21;15.75;;;8.30;;
8550;SDS011;4313;42.000;21.380;2023-04-01T06:40:54;12.90;;;5.97;;
8550;SDS011;4313;42.000;21.380;2023-04-01T06:43:33;16.52;;;9.73;;
8550;SDS011;4313;42.000;21.380;2023-04-01T06:46:34;16.38;;;9.85;;
8550;SDS011;4313;42.000;21.380;2023-04-01T06:49:32;13.10;;;8.52;;
8550;SDS011;4313;42.000;21.380;2023-04-01T06:52:25;15.98;;;9.77;;
8550;SDS011;4313;42.000;21.380;2023-04-01T06:55:36;13.93;;;7.22;;
8550;SDS011;4313;42.000;21.380;2023-04-01T06:58:41;11.35;;;6.57;;
8550;SDS011;4313;42.000;21.380;2023-04-01T07:01:12;11.45;;;6.75;;
8550;SDS011;4313;42.000;21.380;2023-04-01T07:03:44;11.00;;;6.47;;
8550;SDS011;4313;42.000;21.380;2023-04-01T07:06:23;19.42;;;13.93;;
8550;SDS011;4313;42.000;21.380;2023-04-01T07:08:55;12.00;;;5.10;;
8550;SDS011;4313;42.000;21.380;2023-04-01T07:11:34;9.38;;;5.05;;
8550;SDS011;4313;42.000;21.380;2023-04-01T07:14:22;9.93;;;4.90;;
8550;SDS011;4313;42.000;21.380;2023-04-01T07:16:51;13.32;;;4.78;;
8550;SDS011;4313;42.000;21.380;2023-04-01T07:19:25;9.00;;;4.50;;
8550;SDS011;4313;42.000;21.380;2023-04-01T07:22:03;9.27;;;4.35;;
8550;SDS011;4313;42.000;21.380;2023-04-01T07:24:51;11.35;;;3.90;;
8550;SDS011;4313;42.000;21.380;2023-04-01T07:27:19;10.70;;;4.00;;
8550;SDS011;4313;42.000;21.380;2023-04-01T07:29:47;7.90;;;4.00;;
8550;SDS011;4313;42.000;21.380;2023-04-01T07:32:16;7.00;;;4.20;;
8550;SDS011;4313;42.000;21.380;2023-04-01T07:35:00;9.98;;;3.92;;
8550;SDS011;4313;42.000;21.380;2023-04-01T07:37:37;8.40;;;3.95;;
8550;SDS011;4313;42.000;21.380;2023-04-01T07:40:12;9.45;;;4.25;;
8550;SDS011;4313;42.000;21.380;2023-04-01T07:42:49;9.05;;;4.30;;
8550;SDS011;4313;42.000;21.380;2023-04-01T07:45:26;9.52;;;4.65;;
8550;SDS011;4313;42.000;21.380;2023-04-01T07:48:06;6.00;;;4.70;;
8550;SDS011;4313;42.000;21.380;2023-04-01T07:50:43;8.90;;;4.78;;
8550;SDS011;4313;42.000;21.380;2023-04-01T07:53:15;6.20;;;3.67;;
8550;SDS011;4313;42.000;21.380;2023-04-01T07:55:49;10.27;;;3.72;;
8550;SDS011;4313;42.000;21.380;2023-04-01T07:58:22;7.90;;;3.90;;
8550;SDS011;4313;42.000;21.380;2023-04-01T08:00:54;8.05;;;5.07;;
8550;SDS011;4313;42.000;21.380;2023-04-01T08:03:37;9.20;;;4.70;;
8550;SDS011;4313;42.000;21.380;2023-04-01T08:06:12;5.57;;;3.60;;
8550;SDS011;4313;42.000;21.380;2023-04-01T08:08:46;5.93;;;3.38;;
8550;SDS011;4313;42.000;21.380;2023-04-01T08:11:43;8.80;;;3.97;;
8550;SDS011;4313;42.000;21.380;2023-04-01T08:14:36;8.77;;;4.00;;
8550;SDS011;4313;42.000;21.380;2023-04-01T08:17:28;6.85;;;3.58;;
8550;SDS011;4313;42.000;21.380;2023-04-01T08:20:07;7.03;;;3.60;;
8550;SDS011;4313;42.000;21.380;2023-04-01T08:22:44;7.53;;;4.00;;
8550;SDS011;4313;42.000;21.380;2023-04-01T08:25:27;7.55;;;3.55;;
8550;SDS011;4313;42.000;21.380;2023-04-01T08:27:59;6.80;;;3.92;;
8550;SDS011;4313;42.000;21.380;2023-04-01T08:30:34;10.50;;;4.30;;
8550;SDS011;4313;42.000;21.380;2023-04-01T08:33:09;11.35;;;3.90;;
8550;SDS011;4313;42.000;21.380;2023-04-01T08:35:40;8.98;;;4.20;;
8550;SDS011;4313;42.000;21.380;2023-04-01T08:38:10;8.38;;;4.18;;
8550;SDS011;4313;42.000;21.380;2023-04-01T08:40:57;10.30;;;4.20;;
8550;SDS011;4313;42.000;21.380;2023-04-01T08:43:51;8.90;;;4.57;;
8550;SDS011;4313;42.000;21.380;2023-04-01T08:46:37;7.82;;;4.10;;
8550;SDS011;4313;42.000;21.380;2023-04-01T08:49:26;10.82;;;4.68;;
8550;SDS011;4313;42.000;21.380;2023-04-01T08:52:15;7.90;;;4.20;;
8550;SDS011;4313;42.000;21.380;2023-04-01T08:54:54;10.07;;;3.97;;
8550;SDS011;4313;42.000;21.380;2023-04-01T08:57:50;9.32;;;3.95;;
8550;SDS011;4313;42.000;21.380;2023-04-01T09:00:43;9.68;;;4.75;;
8550;SDS011;4313;42.000;21.380;2023-04-01T09:06:24;9.43;;;4.47;;
8550;SDS011;4313;42.000;21.380;2023-04-01T09:09:07;9.18;;;4.45;;
8550;SDS011;4313;42.000;21.380;2023-04-01T09:15:18;10.52;;;4.72;;
8550;SDS011;4313;42.000;21.380;2023-04-01T09:18:12;9.93;;;5.00;;
8550;SDS011;4313;42.000;21.380;2023-04-01T09:21:01;14.40;;;8.82;;
8550;SDS011;4313;42.000;21.380;2023-04-01T09:23:46;16.60;;;7.85;;
8550;SDS011;4313;42.000;21.380;2023-04-01T09:29:16;12.55;;;6.07;;
8550;SDS011;4313;42.000;21.380;2023-04-01T09:31:56;13.20;;;5.20;;
8550;SDS011;4313;42.000;21.380;2023-04-01T09:34:52;14.32;;;5.97;;
8550;SDS011;4313;42.000;21.380;2023-04-01T09:37:29;12.75;;;5.50;;
8550;SDS011;4313;42.000;21.380;2023-04-01T09:43:04;11.48;;;5.80;;
8550;SDS011;4313;42.000;21.380;2023-04-01T09:45:42;6.65;;;3.88;;
8550;SDS011;4313;42.000;21.380;2023-04-01T09:48:24;12.85;;;7.70;;
8550;SDS011;4313;42.000;21.380;2023-04-01T09:51:03;9.13;;;4.85;;
8550;SDS011;4313;42.000;21.380;2023-04-01T09:53:48;13.68;;;6.22;;
8550;SDS011;4313;42.000;21.380;2023-04-01T09:56:25;12.73;;;6.43;;
8550;SDS011;4313;42.000;21.380;2023-04-01T10:02:33;9.93;;;5.30;;
8550;SDS011;4313;42.000;21.380;2023-04-01T10:05:34;9.60;;;6.40;;
8550;SDS011;4313;42.000;21.380;2023-04-01T10:08:36;13.02;;;5.68;;
8550;SDS011;4313;42.000;21.380;2023-04-01T10:11:23;8.45;;;4.80;;
8550;SDS011;4313;42.000;21.380;2023-04-01T10:17:36;10.55;;;4.82;;
8550;SDS011;4313;42.000;21.380;2023-04-01T10:20:14;11.18;;;4.75;;
8550;SDS011;4313;42.000;21.380;2023-04-01T10:23:18;10.38;;;4.25;;
8550;SDS011;4313;42.000;21.380;2023-04-01T10:26:03;4.95;;;3.08;;
8550;SDS011;4313;42.000;21.380;2023-04-01T10:29:02;6.15;;;3.75;;
8550;SDS011;4313;42.000;21.380;2023-04-01T10:32:04;6.28;;;3.50;;
8550;SDS011;4313;42.000;21.380;2023-04-01T10:41:13;6.45;;;3.50;;
8550;SDS011;4313;42.000;21.380;2023-04-01T10:44:29;4.40;;;2.80;;
8550;SDS011;4313;42.000;21.380;2023-04-01T10:47:36;6.35;;;2.95;;
8550;SDS011;4313;42.000;21.380;2023-04-01T10:53:19;1.80;;;1.35;;
8550;SDS011;4313;42.000;21.380;2023-04-01T10:56:35;1.90;;;1.42;;
8550;SDS011;4313;42.000;21.380;2023-04-01T11:06:19;2.63;;;1.65;;
8550;SDS011;4313;42.000;21.380;2023-04-01T11:15:31;3.10;;;2.42;;
8550;SDS011;4313;42.000;21.380;2023-04-01T11:24:18;3.00;;;2.00;;
8550;SDS011;4313;42.000;21.380;2023-04-01T11:30:25;1.40;;;1.30;;
8550;SDS011;4313;42.000;21.380;2023-04-01T11:33:01;2.35;;;1.30;;
8550;SDS011;4313;42.000;21.380;2023-04-01T11:41:37;1.58;;;1.38;;
8550;SDS011;4313;42.000;21.380;2023-04-01T11:44:27;2.47;;;1.90;;
8550;SDS011;4313;42.000;21.380;2023-04-01T11:47:07;7.28;;;3.63;;
8550;SDS011;4313;42.000;21.380;2023-04-01T11:49:48;3.83;;;1.80;;
8550;SDS011;4313;42.000;21.380;2023-04-01T11:52:38;2.88;;;1.50;;
8550;SDS011;4313;42.000;21.380;2023-04-01T11:55:34;3.10;;;1.58;;
8550;SDS011;4313;42.000;21.380;2023-04-01T11:58:16;3.70;;;1.70;;
8550;SDS011;4313;42.000;21.380;2023-04-01T12:01:06;3.72;;;1.90;;
8550;SDS011;4313;42.000;21.380;2023-04-01T12:03:54;3.45;;;1.80;;
8550;SDS011;4313;42.000;21.380;2023-04-01T12:06:43;2.95;;;1.95;;
8550;SDS011;4313;42.000;21.380;2023-04-01T12:09:12;2.95;;;2.30;;
8550;SDS011;4313;42.000;21.380;2023-04-01T12:11:49;3.20;;;1.60;;
8550;SDS011;4313;42.000;21.380;2023-04-01T12:14:22;9.02;;;2.33;;
8550;SDS011;4313;42.000;21.380;2023-04-01T12:16:56;3.85;;;2.13;;
8550;SDS011;4313;42.000;21.380;2023-04-01T12:19:32;5.60;;;2.60;;
8550;SDS011;4313;42.000;21.380;2023-04-01T12:22:12;3.00;;;2.00;;
8550;SDS011;4313;42.000;21.380;2023-04-01T12:24:52;2.20;;;1.80;;
8550;SDS011;4313;42.000;21.380;2023-04-01T12:27:33;3.20;;;2.00;;
8550;SDS011;4313;42.000;21.380;2023-04-01T12:33:24;2.53;;;1.92;;
8550;SDS011;4313;42.000;21.380;2023-04-01T12:36:13;2.67;;;1.60;;
8550;SDS011;4313;42.000;21.380;2023-04-01T12:38:49;4.60;;;2.17;;
8550;SDS011;4313;42.000;21.380;2023-04-01T12:41:29;4.07;;;3.20;;
8550;SDS011;4313;42.000;21.380;2023-04-01T12:47:03;2.33;;;1.60;;
8550;SDS011;4313;42.000;21.380;2023-04-01T12:49:58;2.92;;;1.73;;
8550;SDS011;4313;42.000;21.380;2023-04-01T12:52:41;1.70;;;1.40;;
8550;SDS011;4313;42.000;21.380;2023-04-01T13:01:15;2.03;;;1.67;;
8550;SDS011;4313;42.000;21.380;2023-04-01T13:07:10;5.38;;;1.70;;
8550;SDS011;4313;42.000;21.380;2023-04-01T13:09:52;3.15;;;1.60;;
8550;SDS011;4313;42.000;21.380;2023-04-01T13:12:36;2.72;;;1.40;;
8550;SDS011;4313;42.000;21.380;2023-04-01T13:15:26;1.52;;;1.25;;
8550;SDS011;4313;42.000;21.380;2023-04-01T13:17:58;6.57;;;4.57;;
8550;SDS011;4313;42.000;21.380;2023-04-01T13:20:35;5.40;;;3.33;;
8550;SDS011;4313;42.000;21.380;2023-04-01T13:23:10;6.13;;;2.67;;
8550;SDS011;4313;42.000;21.380;2023-04-01T13:25:46;4.97;;;2.13;;
8550;SDS011;4313;42.000;21.380;2023-04-01T13:28:19;10.68;;;3.08;;
8550;SDS011;4313;42.000;21.380;2023-04-01T13:30:49;4.00;;;2.13;;
8550;SDS011;4313;42.000;21.380;2023-04-01T13:33:25;4.68;;;2.83;;
8550;SDS011;4313;42.000;21.380;2023-04-01T13:36:00;5.80;;;1.80;;
8550;SDS011;4313;42.000;21.380;2023-04-01T13:38:43;9.35;;;2.65;;
8550;SDS011;4313;42.000;21.380;2023-04-01T13:41:35;5.82;;;2.13;;
8550;SDS011;4313;42.000;21.380;2023-04-01T13:44:10;4.85;;;2.58;;
8550;SDS011;4313;42.000;21.380;2023-04-01T13:46:53;4.00;;;2.40;;
8550;SDS011;4313;42.000;21.380;2023-04-01T13:58:08;3.58;;;2.13;;
8550;SDS011;4313;42.000;21.380;2023-04-01T14:01:00;6.28;;;2.88;;
8550;SDS011;4313;42.000;21.380;2023-04-01T14:03:42;7.50;;;2.70;;
8550;SDS011;4313;42.000;21.380;2023-04-01T14:06:20;3.88;;;2.17;;
8550;SDS011;4313;42.000;21.380;2023-04-01T14:09:04;4.95;;;2.20;;
8550;SDS011;4313;42.000;21.380;2023-04-01T14:11:45;4.05;;;2.25;;
8550;SDS011;4313;42.000;21.380;2023-04-01T14:14:21;7.18;;;2.50;;
8550;SDS011;4313;42.000;21.380;2023-04-01T14:16:59;5.72;;;2.75;;
8550;SDS011;4313;42.000;21.380;2023-04-01T14:19:46;5.00;;;2.45;;
8550;SDS011;4313;42.000;21.380;2023-04-01T14:22:25;5.60;;;2.35;;
8550;SDS011;4313;42.000;21.380;2023-04-01T14:25:03;5.72;;;3.40;;
8550;SDS011;4313;42.000;21.380;2023-04-01T14:27:41;4.03;;;2.72;;
8550;SDS011;4313;42.000;21.380;2023-04-01T14:30:27;2.40;;;2.20;;
8550;SDS011;4313;42.000;21.380;2023-04-01T14:33:01;4.38;;;2.20;;
8550;SDS011;4313;42.000;21.380;2023-04-01T14:35:37;6.13;;;2.60;;
8550;SDS011;4313;42.000;21.380;2023-04-01T14:38:08;4.57;;;3.10;;
8550;SDS011;4313;42.000;21.380;2023-04-01T14:41:00;5.22;;;2.40;;
8550;SDS011;4313;42.000;21.380;2023-04-01T14:43:46;5.35;;;2.47;;
8550;SDS011;4313;42.000;21.380;2023-04-01T14:46:28;4.50;;;2.28;;
8550;SDS011;4313;42.000;21.380;2023-04-01T14:49:02;3.75;;;2.00;;
8550;SDS011;4313;42.000;21.380;2023-04-01T14:51:32;4.18;;;2.22;;
8550;SDS011;4313;42.000;21.380;2023-04-01T14:54:04;5.97;;;3.85;;
8550;SDS011;4313;42.000;21.380;2023-04-01T14:56:39;8.68;;;4.72;;
8550;SDS011;4313;42.000;21.380;2023-04-01T14:59:13;9.88;;;4.07;;
8550;SDS011;4313;42.000;21.380;2023-04-01T15:01:45;3.78;;;2.33;;
8550;SDS011;4313;42.000;21.380;2023-04-01T15:07:21;2.75;;;2.00;;
8550;SDS011;4313;42.000;21.380;2023-04-01T15:10:11;8.50;;;5.63;;
8550;SDS011;4313;42.000;21.380;2023-04-01T15:12:47;5.68;;;2.67;;
8550;SDS011;4313;42.000;21.380;2023-04-01T15:15:23;4.63;;;2.28;;
8550;SDS011;4313;42.000;21.380;2023-04-01T15:18:05;4.15;;;2.00;;
8550;SDS011;4313;42.000;21.380;2023-04-01T15:20:40;3.05;;;2.00;;
8550;SDS011;4313;42.000;21.380;2023-04-01T15:23:18;3.25;;;2.40;;
8550;SDS011;4313;42.000;21.380;2023-04-01T15:29:06;4.45;;;2.47;;
8550;SDS011;4313;42.000;21.380;2023-04-01T15:31:44;3.05;;;2.35;;
8550;SDS011;4313;42.000;21.380;2023-04-01T15:34:28;2.90;;;1.90;;
8550;SDS011;4313;42.000;21.380;2023-04-01T15:37:00;2.90;;;2.00;;
8550;SDS011;4313;42.000;21.380;2023-04-01T15:39:36;4.50;;;1.95;;
8550;SDS011;4313;42.000;21.380;2023-04-01T15:42:12;3.10;;;1.80;;
8550;SDS011;4313;42.000;21.380;2023-04-01T15:44:51;5.20;;;2.90;;
8550;SDS011;4313;42.000;21.380;2023-04-01T15:47:34;4.25;;;2.38;;
8550;SDS011;4313;42.000;21.380;2023-04-01T15:52:59;4.03;;;2.03;;
8550;SDS011;4313;42.000;21.380;2023-04-01T15:55:35;2.80;;;1.85;;
8550;SDS011;4313;42.000;21.380;2023-04-01T15:58:11;3.35;;;2.17;;
8550;SDS011;4313;42.000;21.380;2023-04-01T16:00:48;3.72;;;1.95;;
8550;SDS011;4313;42.000;21.380;2023-04-01T16:03:20;5.35;;;3.13;;
8550;SDS011;4313;42.000;21.380;2023-04-01T16:05:58;3.63;;;2.03;;
8550;SDS011;4313;42.000;21.380;2023-04-01T16:08:49;5.20;;;2.50;;
8550;SDS011;4313;42.000;21.380;2023-04-01T16:11:25;6.63;;;2.88;;
8550;SDS011;4313;42.000;21.380;2023-04-01T16:14:06;5.47;;;2.03;;
8550;SDS011;4313;42.000;21.380;2023-04-01T16:19:33;10.15;;;7.95;;
8550;SDS011;4313;42.000;21.380;2023-04-01T16:22:19;8.88;;;6.75;;
8550;SDS011;4313;42.000;21.380;2023-04-01T16:24:49;5.00;;;3.60;;
8550;SDS011;4313;42.000;21.380;2023-04-01T16:27:19;4.10;;;2.80;;
8550;SDS011;4313;42.000;21.380;2023-04-01T16:29:52;6.07;;;3.45;;
8550;SDS011;4313;42.000;21.380;2023-04-01T16:32:35;6.38;;;4.60;;
8550;SDS011;4313;42.000;21.380;2023-04-01T16:35:17;2.92;;;2.13;;
8550;SDS011;4313;42.000;21.380;2023-04-01T16:37:54;2.17;;;1.98;;
8550;SDS011;4313;42.000;21.380;2023-04-01T16:40:33;2.95;;;2.20;;
8550;SDS011;4313;42.000;21.380;2023-04-01T16:43:06;4.25;;;2.67;;
8550;SDS011;4313;42.000;21.380;2023-04-01T16:45:42;4.93;;;3.53;;
8550;SDS011;4313;42.000;21.380;2023-04-01T16:48:14;8.50;;;4.82;;
8550;SDS011;4313;42.000;21.380;2023-04-01T16:50:44;6.00;;;4.30;;
8550;SDS011;4313;42.000;21.380;2023-04-01T16:53:18;7.75;;;4.15;;
8550;SDS011;4313;42.000;21.380;2023-04-01T16:55:52;5.80;;;3.47;;
8550;SDS011;4313;42.000;21.380;2023-04-01T16:58:26;4.20;;;2.33;;
8550;SDS011;4313;42.000;21.380;2023-04-01T17:00:58;3.63;;;2.78;;
8550;SDS011;4313;42.000;21.380;2023-04-01T17:03:28;5.38;;;3.20;;
8550;SDS011;4313;42.000;21.380;2023-04-01T17:06:02;6.30;;;3.15;;
8550;SDS011;4313;42.000;21.380;2023-04-01T17:08:38;5.85;;;3.50;;
8550;SDS011;4313;42.000;21.380;2023-04-01T17:11:16;4.05;;;1.95;;
8550;SDS011;4313;42.000;21.380;2023-04-01T17:13:50;3.63;;;2.05;;
8550;SDS011;4313;42.000;21.380;2023-04-01T17:16:43;4.70;;;2.90;;
8550;SDS011;4313;42.000;21.380;2023-04-01T17:19:30;5.00;;;2.65;;
8550;SDS011;4313;42.000;21.380;2023-04-01T17:22:06;4.57;;;2.30;;
8550;SDS011;4313;42.000;21.380;2023-04-01T17:24:49;4.15;;;3.25;;
8550;SDS011;4313;42.000;21.380;2023-04-01T17:27:23;5.00;;;2.80;;
8550;SDS011;4313;42.000;21.380;2023-04-01T17:29:59;2.72;;;2.28;;
8550;SDS011;4313;42.000;21.380;2023-04-01T17:32:36;3.70;;;2.78;;